Elkhart Lake, Wisconsin
Current Conditions -  °F | °C
As of 12:53 AM on Saturday 29 Nov 2014 (Local Time) from KSBM Reporting Station
Light Rain Light Rain  
Wind Chill: -2°   Ceiling: 9500
Heat Index:   Visibility: 6mi
Dew Point: -1°   Wind: 5mph
Humidity: 89%   Direction: 180°S
Pressure: 29.83"   Gusts: NA
Location:  43.83°N, 88.02°W
Report Text: KSBM 290653Z AUTO 18004KT 6SM -RA BR BKN095 OVC110 01/M01 A2983 RMK AO2 RAB50FZRAE16 SLP109 P0001 I1001 T00061011
Loading
Personal Weather Stations






























Interactive Weather Map New forecast layout! Learn more

10-Day Weather Forecast

Advertisements
Track Severe Weather on mobile